createdAt,value
2022-08-17T00:00:34.633Z,3.95
2022-08-17T00:03:15.206Z,4.40
2022-08-17T00:05:44.562Z,3.88
2022-08-17T00:08:14.814Z,4.55
2022-08-17T00:13:19.833Z,4.60
2022-08-17T00:15:47.416Z,4.55
2022-08-17T00:19:01.766Z,4.32
2022-08-17T00:21:05.577Z,4.10
2022-08-17T00:23:38.445Z,4.57
2022-08-17T00:26:14.214Z,4.28
2022-08-17T00:28:41.679Z,4.65
2022-08-17T00:31:10.198Z,4.43
2022-08-17T00:33:38.210Z,4.90
2022-08-17T00:36:06.279Z,4.38
2022-08-17T00:38:34.534Z,3.40
2022-08-17T00:41:06.506Z,3.92
2022-08-17T00:43:38.107Z,4.50
2022-08-17T00:46:17.403Z,4.13
2022-08-17T00:48:45.181Z,4.30
2022-08-17T00:51:16.288Z,4.47
2022-08-17T00:53:45.758Z,4.53
2022-08-17T00:56:21.079Z,4.50
2022-08-17T00:58:51.823Z,4.47
2022-08-17T01:01:21.901Z,4.25
2022-08-17T01:03:52.326Z,4.15
2022-08-17T01:06:21.070Z,5.03
2022-08-17T01:08:52.121Z,5.35
2022-08-17T01:11:25.155Z,4.55
2022-08-17T01:13:52.499Z,4.88
2022-08-17T01:16:30.869Z,5.20
2022-08-17T01:19:02.167Z,4.25
2022-08-17T01:21:36.561Z,4.57
2022-08-17T01:24:04.327Z,5.15
2022-08-17T01:26:33.176Z,4.45
2022-08-17T01:29:01.418Z,4.70
2022-08-17T01:31:40.114Z,4.30
2022-08-17T01:34:10.024Z,4.35
2022-08-17T01:36:39.527Z,5.55
2022-08-17T01:39:10.523Z,4.38
2022-08-17T01:41:40.468Z,4.38
2022-08-17T01:44:08.007Z,4.53
2022-08-17T01:46:37.022Z,4.43
2022-08-17T01:49:10.332Z,4.22
2022-08-17T01:51:38.004Z,4.38
2022-08-17T01:54:10.191Z,4.10
2022-08-17T01:56:40.555Z,4.03
2022-08-17T01:59:08.892Z,4.90
2022-08-17T02:01:37.142Z,4.78
2022-08-17T02:04:05.337Z,4.35
2022-08-17T02:06:52.930Z,4.50
2022-08-17T02:09:24.085Z,4.00
2022-08-17T02:11:53.194Z,4.40
2022-08-17T02:14:21.697Z,4.70
2022-08-17T02:16:49.061Z,4.32
2022-08-17T02:19:17.073Z,4.57
2022-08-17T02:21:46.930Z,4.60
2022-08-17T02:24:59.410Z,5.18
2022-08-17T02:27:07.954Z,5.22
2022-08-17T02:29:35.364Z,4.90
2022-08-17T02:32:02.758Z,5.00
2022-08-17T02:34:30.106Z,5.32
2022-08-17T02:36:57.521Z,4.78
2022-08-17T02:39:24.987Z,4.50
2022-08-17T02:42:01.696Z,4.85
2022-08-17T02:44:39.132Z,4.90
2022-08-17T02:47:07.052Z,4.63
2022-08-17T02:49:34.407Z,4.55
2022-08-17T02:52:05.000Z,5.00
2022-08-17T02:54:39.280Z,5.47
2022-08-17T02:57:08.346Z,4.50
2022-08-17T02:59:35.680Z,4.75
2022-08-17T03:02:12.119Z,5.38
2022-08-17T03:04:39.467Z,5.22
2022-08-17T03:07:06.888Z,4.28
2022-08-17T03:09:35.174Z,4.50
2022-08-17T03:12:11.142Z,5.03
2022-08-17T03:14:42.451Z,6.13
2022-08-17T03:17:12.796Z,5.20
2022-08-17T03:19:44.614Z,5.35
2022-08-17T03:22:36.540Z,6.35
2022-08-17T03:24:59.696Z,6.07
2022-08-17T03:27:27.087Z,5.18
2022-08-17T03:29:55.153Z,5.35
2022-08-17T03:32:22.601Z,5.32
2022-08-17T03:34:50.105Z,5.50
2022-08-17T03:37:17.484Z,5.28
2022-08-17T03:39:44.847Z,5.72
2022-08-17T03:42:31.845Z,5.70
2022-08-17T03:44:59.977Z,5.60
2022-08-17T03:47:46.201Z,5.28
2022-08-17T03:50:33.948Z,5.18
2022-08-17T03:53:22.883Z,5.05
2022-08-17T03:56:08.872Z,5.60
2022-08-17T03:58:39.409Z,5.38
2022-08-17T04:01:07.587Z,5.13
2022-08-17T04:03:35.008Z,5.07
2022-08-17T04:06:02.335Z,4.68
2022-08-17T04:08:30.267Z,5.18
2022-08-17T04:10:58.184Z,5.63
2022-08-17T04:13:25.732Z,5.15
2022-08-17T04:15:53.170Z,5.78
2022-08-17T04:18:20.549Z,5.53
2022-08-17T04:20:47.876Z,5.07
2022-08-17T04:23:17.711Z,5.45
2022-08-17T04:25:49.046Z,5.05
2022-08-17T04:28:18.084Z,5.10
2022-08-17T04:30:47.373Z,5.68
2022-08-17T04:33:26.916Z,4.82
2022-08-17T04:35:58.020Z,5.43
2022-08-17T04:38:28.503Z,5.63
2022-08-17T04:41:15.493Z,5.03
2022-08-17T04:43:44.196Z,5.28
2022-08-17T04:46:16.179Z,5.22
2022-08-17T04:48:48.431Z,6.85
2022-08-17T04:51:31.132Z,5.97
2022-08-17T04:54:12.761Z,5.40
2022-08-17T04:56:40.158Z,5.55
2022-08-17T04:59:13.250Z,4.88
2022-08-17T05:01:41.860Z,5.18
2022-08-17T05:04:33.406Z,5.38
2022-08-17T05:06:58.774Z,6.13
2022-08-17T05:09:26.135Z,6.15
2022-08-17T05:11:53.464Z,6.55
2022-08-17T05:14:22.804Z,6.93
2022-08-17T05:17:01.493Z,6.45
2022-08-17T05:21:58.330Z,6.30
2022-08-17T05:24:39.092Z,6.78
2022-08-17T05:27:16.788Z,7.18
2022-08-17T05:29:46.601Z,7.20
2022-08-17T05:32:39.174Z,7.00
2022-08-17T05:35:02.295Z,7.07
2022-08-17T05:37:29.618Z,7.15
2022-08-17T05:39:57.024Z,7.45
2022-08-17T05:42:24.450Z,7.63
2022-08-17T05:44:51.847Z,6.60
2022-08-17T05:47:19.254Z,7.05
2022-08-17T05:49:49.053Z,6.35
2022-08-17T05:52:48.953Z,7.53
2022-08-17T05:55:16.441Z,7.13
2022-08-17T05:57:56.079Z,6.43
2022-08-17T06:00:31.294Z,7.43
2022-08-17T06:03:23.454Z,7.03
2022-08-17T06:06:02.253Z,6.60
2022-08-17T06:08:29.665Z,6.68
2022-08-17T06:10:56.947Z,6.85
2022-08-17T06:13:57.122Z,6.35
2022-08-17T06:16:34.479Z,6.45
2022-08-17T06:19:10.431Z,6.43
2022-08-17T06:21:41.644Z,6.57
2022-08-17T06:24:27.550Z,6.60
2022-08-17T06:26:56.398Z,6.53
2022-08-17T06:29:52.060Z,6.03
2022-08-17T06:32:19.460Z,6.05
2022-08-17T06:34:46.979Z,6.07
2022-08-17T06:37:15.351Z,6.45
2022-08-17T06:39:45.892Z,6.05
2022-08-17T06:43:06.180Z,6.38
2022-08-17T06:45:18.699Z,6.03
2022-08-17T06:48:04.228Z,5.50
2022-08-17T06:50:37.268Z,6.07
2022-08-17T06:53:17.925Z,5.95
2022-08-17T06:55:54.558Z,6.03
2022-08-17T06:58:29.771Z,5.32
2022-08-17T07:01:01.034Z,5.68
2022-08-17T07:03:54.827Z,5.35
2022-08-17T07:06:27.060Z,5.72
2022-08-17T07:09:00.062Z,5.05
2022-08-17T07:11:32.266Z,6.10
2022-08-17T07:14:25.448Z,5.15
2022-08-17T07:16:56.143Z,5.70
2022-08-17T07:19:27.579Z,5.50
2022-08-17T07:22:02.309Z,5.25
2022-08-17T07:24:37.285Z,5.35
2022-08-17T07:27:13.273Z,5.38
2022-08-17T07:29:46.995Z,6.57
2022-08-17T07:32:18.657Z,6.55
2022-08-17T07:35:02.704Z,4.65
2022-08-17T07:37:32.357Z,5.28
2022-08-17T07:40:15.111Z,5.38
2022-08-17T07:42:45.085Z,5.18
2022-08-17T07:45:35.143Z,5.15
2022-08-17T07:48:20.856Z,5.13
2022-08-17T07:50:49.373Z,6.00
2022-08-17T07:53:23.608Z,5.90
2022-08-17T07:55:52.547Z,5.22
2022-08-17T07:58:23.648Z,5.65
2022-08-17T08:01:11.176Z,4.75
2022-08-17T08:03:44.678Z,5.07
2022-08-17T08:06:23.926Z,5.55
2022-08-17T08:08:56.504Z,6.28
2022-08-17T08:11:35.732Z,5.00
2022-08-17T08:14:21.862Z,4.90
2022-08-17T08:17:01.788Z,4.68
2022-08-17T08:19:31.093Z,4.70
2022-08-17T08:21:59.142Z,4.30
2022-08-17T08:24:32.693Z,4.75
2022-08-17T08:27:09.193Z,4.57
2022-08-17T08:30:04.956Z,4.72
2022-08-17T08:32:52.306Z,4.13
2022-08-17T08:35:39.575Z,3.50
2022-08-17T08:38:18.304Z,5.13
2022-08-17T08:41:17.079Z,4.25
2022-08-17T08:43:45.787Z,3.92
2022-08-17T08:46:35.427Z,3.70
2022-08-17T08:50:02.062Z,4.35
2022-08-17T08:52:44.076Z,3.60
2022-08-17T08:55:11.422Z,3.63
2022-08-17T08:57:44.151Z,3.83
2022-08-17T09:00:20.017Z,3.60
2022-08-17T09:03:14.580Z,4.03
2022-08-17T09:06:00.487Z,3.65
2022-08-17T09:08:39.692Z,3.10
2022-08-17T09:11:28.084Z,3.17
2022-08-17T09:14:21.692Z,3.40
2022-08-17T09:16:58.905Z,3.30
2022-08-17T09:19:51.392Z,3.08
2022-08-17T09:22:48.581Z,3.20
2022-08-17T09:25:28.491Z,2.92
2022-08-17T09:28:06.563Z,2.72
2022-08-17T09:30:56.089Z,3.28
2022-08-17T09:33:29.028Z,3.03
2022-08-17T09:36:42.565Z,2.60
2022-08-17T09:39:17.361Z,2.90
2022-08-17T09:42:02.806Z,2.63
2022-08-17T09:44:30.180Z,2.65
2022-08-17T09:47:10.281Z,2.60
2022-08-17T09:52:28.845Z,2.88
2022-08-17T09:57:32.305Z,3.08
2022-08-17T10:00:01.019Z,2.55
2022-08-17T10:02:28.309Z,2.50
2022-08-17T10:05:08.879Z,2.50
2022-08-17T10:07:55.476Z,2.80
2022-08-17T10:10:29.692Z,2.65
2022-08-17T10:13:12.823Z,2.80
2022-08-17T10:16:00.472Z,2.80
2022-08-17T10:18:45.988Z,3.55
2022-08-17T10:21:34.111Z,3.35
2022-08-17T10:24:20.212Z,3.25
2022-08-17T10:26:56.564Z,2.75
2022-08-17T10:29:50.426Z,2.47
2022-08-17T10:32:45.355Z,2.00
2022-08-17T10:35:53.276Z,2.40
2022-08-17T10:38:49.544Z,2.28
2022-08-17T10:41:21.845Z,2.47
2022-08-17T10:44:38.602Z,2.53
2022-08-17T10:47:03.050Z,2.40
2022-08-17T10:49:47.817Z,2.20
2022-08-17T10:52:21.936Z,2.20
2022-08-17T10:54:51.437Z,2.03
2022-08-17T10:57:31.735Z,2.63
2022-08-17T11:00:08.608Z,2.40
2022-08-17T11:02:53.263Z,2.17
2022-08-17T11:05:46.973Z,2.22
2022-08-17T11:08:22.876Z,1.95
2022-08-17T11:11:20.628Z,2.40
2022-08-17T11:14:17.025Z,2.10
2022-08-17T11:16:58.860Z,2.28
2022-08-17T11:19:38.445Z,2.03
2022-08-17T11:22:33.513Z,2.15
2022-08-17T11:25:20.387Z,2.17
2022-08-17T11:27:53.674Z,2.03
2022-08-17T11:30:50.946Z,1.92
2022-08-17T11:33:29.819Z,2.10
2022-08-17T11:36:29.431Z,2.65
2022-08-17T11:39:16.539Z,2.42
2022-08-17T11:41:44.187Z,2.05
2022-08-17T11:44:26.628Z,2.30
2022-08-17T11:47:36.195Z,1.85
2022-08-17T11:50:47.642Z,2.60
2022-08-17T11:53:37.284Z,1.98
2022-08-17T11:56:04.696Z,1.48
2022-08-17T11:58:32.032Z,1.85
2022-08-17T12:01:01.115Z,1.85
2022-08-17T12:03:31.886Z,1.80
2022-08-17T12:06:30.455Z,1.70
2022-08-17T12:09:13.588Z,1.58
2022-08-17T12:12:11.954Z,1.52
2022-08-17T12:17:41.162Z,1.73
2022-08-17T12:20:12.516Z,1.63
2022-08-17T12:25:26.829Z,1.42
2022-08-17T12:28:06.825Z,1.42
2022-08-17T12:30:36.199Z,2.03
2022-08-17T12:33:03.623Z,1.80
2022-08-17T12:35:35.314Z,1.85
2022-08-17T12:38:04.525Z,1.30
2022-08-17T12:40:33.280Z,1.70
2022-08-17T12:43:04.006Z,1.40
2022-08-17T12:45:39.504Z,1.45
2022-08-17T12:48:12.372Z,1.70
2022-08-17T12:50:43.749Z,1.85
2022-08-17T12:53:25.024Z,1.73
2022-08-17T12:55:52.537Z,1.27
2022-08-17T12:58:25.894Z,1.80
2022-08-17T13:01:15.937Z,1.40
2022-08-17T13:06:25.615Z,1.65
2022-08-17T13:11:24.157Z,1.35
2022-08-17T13:13:55.151Z,1.50
2022-08-17T13:16:27.970Z,1.70
2022-08-17T13:18:55.364Z,1.40
2022-08-17T13:21:22.904Z,1.58
2022-08-17T13:24:12.021Z,1.60
2022-08-17T13:27:01.929Z,1.60
2022-08-17T13:29:45.841Z,1.52
2022-08-17T13:32:23.273Z,1.67
2022-08-17T13:35:14.155Z,1.95
2022-08-17T13:37:58.606Z,1.38
2022-08-17T13:40:36.132Z,1.50
2022-08-17T13:43:03.472Z,1.42
2022-08-17T13:45:40.029Z,1.50
2022-08-17T13:48:14.473Z,1.52
2022-08-17T13:50:46.786Z,1.38
2022-08-17T13:53:23.970Z,1.42
2022-08-17T13:55:58.613Z,1.40
2022-08-17T13:58:28.130Z,1.75
2022-08-17T14:00:56.325Z,1.25
2022-08-17T14:03:24.349Z,1.35
2022-08-17T14:05:52.723Z,1.52
2022-08-17T14:08:20.814Z,1.50
2022-08-17T14:10:58.316Z,1.58
2022-08-17T14:13:25.677Z,1.58
2022-08-17T14:15:54.633Z,1.33
2022-08-17T14:18:30.555Z,1.52
2022-08-17T14:21:10.892Z,1.60
2022-08-17T14:23:38.525Z,1.88
2022-08-17T14:26:05.935Z,1.40
2022-08-17T14:28:33.345Z,1.30
2022-08-17T14:31:03.452Z,1.50
2022-08-17T14:33:30.868Z,1.35
2022-08-17T14:35:58.243Z,1.30
2022-08-17T14:38:25.590Z,1.30
2022-08-17T14:40:52.932Z,1.48
2022-08-17T14:43:20.532Z,1.27
2022-08-17T14:45:47.482Z,1.10
2022-08-17T14:48:14.914Z,1.42
2022-08-17T14:50:44.139Z,1.00
2022-08-17T14:53:13.500Z,1.30
2022-08-17T14:55:40.722Z,1.08
2022-08-17T14:58:09.161Z,1.30
2022-08-17T15:00:37.115Z,1.23
2022-08-17T15:03:04.384Z,1.00
2022-08-17T15:05:35.224Z,0.90
2022-08-17T15:08:03.566Z,1.27
2022-08-17T15:10:32.111Z,1.20
2022-08-17T15:12:59.365Z,1.30
2022-08-17T15:15:26.861Z,1.05
2022-08-17T15:17:54.190Z,1.23
2022-08-17T15:20:24.751Z,1.48
2022-08-17T15:22:56.075Z,1.15
2022-08-17T15:25:26.223Z,1.30
2022-08-17T15:27:55.485Z,1.10
2022-08-17T15:30:22.848Z,0.97
2022-08-17T15:32:54.701Z,1.00
2022-08-17T15:35:29.086Z,1.00
2022-08-17T15:37:58.478Z,1.20
2022-08-17T15:40:25.973Z,1.03
2022-08-17T15:42:53.182Z,1.10
2022-08-17T15:45:24.626Z,1.13
2022-08-17T15:47:53.526Z,0.90
2022-08-17T15:50:20.980Z,1.13
2022-08-17T15:52:58.808Z,0.90
2022-08-17T15:55:28.231Z,1.10
2022-08-17T15:57:55.443Z,1.50
2022-08-17T16:00:24.087Z,1.10
2022-08-17T16:03:44.312Z,1.15
2022-08-17T16:05:38.374Z,1.35
2022-08-17T16:08:07.791Z,1.33
2022-08-17T16:10:36.097Z,1.38
2022-08-17T16:13:04.355Z,1.50
2022-08-17T16:15:32.305Z,1.00
2022-08-17T16:17:59.865Z,1.20
2022-08-17T16:20:27.334Z,1.23
2022-08-17T16:22:55.360Z,1.15
2022-08-17T16:25:47.207Z,1.50
2022-08-17T16:28:16.214Z,1.73
2022-08-17T16:30:43.620Z,1.30
2022-08-17T16:33:11.771Z,1.17
2022-08-17T16:35:39.735Z,1.40
2022-08-17T16:38:07.345Z,1.13
2022-08-17T16:40:35.712Z,1.67
2022-08-17T16:43:04.264Z,0.98
2022-08-17T16:45:39.992Z,1.10
2022-08-17T16:48:07.836Z,1.00
2022-08-17T16:50:35.969Z,1.00
2022-08-17T16:53:17.247Z,1.10
2022-08-17T16:55:45.676Z,1.17
2022-08-17T16:58:12.987Z,0.90
2022-08-17T17:00:42.070Z,1.10
2022-08-17T17:03:19.997Z,1.00
2022-08-17T17:06:13.527Z,1.20
2022-08-17T17:09:02.508Z,1.10
2022-08-17T17:11:48.021Z,1.00
2022-08-17T17:14:20.286Z,0.90
2022-08-17T17:17:03.189Z,0.90
2022-08-17T17:19:35.648Z,1.08
2022-08-17T17:22:03.178Z,0.95
2022-08-17T17:24:36.600Z,1.13
2022-08-17T17:27:18.522Z,0.90
2022-08-17T17:30:06.167Z,1.20
2022-08-17T17:32:41.266Z,0.98
2022-08-17T17:35:34.643Z,1.20
2022-08-17T17:38:17.068Z,0.85
2022-08-17T17:40:50.206Z,1.00
2022-08-17T17:43:38.188Z,0.90
2022-08-17T17:46:27.480Z,1.00
2022-08-17T17:48:56.815Z,0.90
2022-08-17T17:52:01.959Z,1.10
2022-08-17T17:54:42.831Z,1.10
2022-08-17T17:57:13.199Z,1.20
2022-08-17T17:59:55.133Z,0.98
2022-08-17T18:03:00.102Z,1.08
2022-08-17T18:05:30.422Z,0.90
2022-08-17T18:08:10.610Z,0.88
2022-08-17T18:10:44.960Z,0.90
2022-08-17T18:13:50.074Z,1.13
2022-08-17T18:16:19.232Z,0.95
2022-08-17T18:18:52.382Z,1.17
2022-08-17T18:21:28.512Z,1.10
2022-08-17T18:24:00.286Z,1.13
2022-08-17T18:26:32.847Z,1.35
2022-08-17T18:29:01.535Z,0.90
2022-08-17T18:31:29.042Z,1.48
2022-08-17T18:37:26.480Z,1.67
2022-08-17T18:39:53.887Z,1.90
2022-08-17T18:42:30.442Z,2.00
2022-08-17T18:44:57.398Z,2.08
2022-08-17T18:47:28.186Z,2.47
2022-08-17T18:50:25.960Z,2.90
2022-08-17T18:52:55.215Z,2.20
2022-08-17T18:55:28.429Z,2.90
2022-08-17T18:57:59.563Z,2.95
2022-08-17T19:00:42.073Z,2.60
2022-08-17T19:03:18.026Z,2.45
2022-08-17T19:05:55.307Z,2.42
2022-08-17T19:08:25.772Z,2.53
2022-08-17T19:11:09.547Z,2.00
2022-08-17T19:13:42.131Z,2.60
2022-08-17T19:16:31.774Z,2.88
2022-08-17T19:19:02.073Z,2.42
2022-08-17T19:21:43.138Z,2.85
2022-08-17T19:24:19.882Z,3.25
2022-08-17T19:26:58.250Z,2.78
2022-08-17T19:29:44.455Z,3.63
2022-08-17T19:32:16.427Z,3.05
2022-08-17T19:34:44.745Z,3.78
2022-08-17T19:37:24.406Z,4.03
2022-08-17T19:39:59.139Z,3.33
2022-08-17T19:42:40.531Z,3.58
2022-08-17T19:45:10.748Z,3.20
2022-08-17T19:48:05.068Z,3.78
2022-08-17T19:50:39.098Z,3.95
2022-08-17T19:53:18.470Z,4.57
2022-08-17T19:55:54.949Z,3.90
2022-08-17T19:58:27.845Z,3.67
2022-08-17T20:00:55.275Z,3.60
2022-08-17T20:03:43.998Z,3.53
2022-08-17T20:06:13.531Z,3.60
2022-08-17T20:09:22.230Z,3.88
2022-08-17T20:11:54.830Z,3.08
2022-08-17T20:14:30.832Z,3.83
2022-08-17T20:17:02.344Z,4.25
2022-08-17T20:19:41.223Z,3.72
2022-08-17T20:22:17.582Z,3.35
2022-08-17T20:24:53.816Z,3.90
2022-08-17T20:27:31.656Z,4.30
2022-08-17T20:30:13.025Z,3.63
2022-08-17T20:32:58.908Z,3.83
2022-08-17T20:35:37.969Z,3.40
2022-08-17T20:38:08.561Z,3.53
2022-08-17T20:41:11.315Z,3.65
2022-08-17T20:43:51.895Z,3.20
2022-08-17T20:46:30.115Z,3.28
2022-08-17T20:49:06.212Z,3.65
2022-08-17T20:52:11.033Z,3.45
2022-08-17T20:54:42.296Z,3.65
2022-08-17T20:57:35.108Z,3.38
2022-08-17T21:00:14.295Z,3.47
2022-08-17T21:02:47.035Z,3.72
2022-08-17T21:05:27.349Z,3.00
2022-08-17T21:08:13.407Z,3.60
2022-08-17T21:10:46.493Z,3.45
2022-08-17T21:13:15.393Z,3.85
2022-08-17T21:15:43.134Z,3.57
2022-08-17T21:18:25.973Z,3.55
2022-08-17T21:21:24.400Z,4.40
2022-08-17T21:24:13.365Z,4.00
2022-08-17T21:26:50.517Z,3.65
2022-08-17T21:29:31.967Z,3.40
2022-08-17T21:32:03.937Z,3.92
2022-08-17T21:34:35.535Z,4.07
2022-08-17T21:37:23.784Z,3.97
2022-08-17T21:40:21.613Z,3.83
2022-08-17T21:42:53.820Z,4.00
2022-08-17T21:45:35.597Z,3.85
2022-08-17T21:48:21.078Z,3.85
2022-08-17T21:51:01.923Z,3.13
2022-08-17T21:53:46.828Z,3.92
2022-08-17T21:56:25.497Z,3.58
2022-08-17T21:59:07.810Z,3.30
2022-08-17T22:01:41.005Z,4.85
2022-08-17T22:04:11.628Z,3.85
2022-08-17T22:06:39.030Z,4.13
2022-08-17T22:09:16.075Z,3.70
2022-08-17T22:11:52.617Z,3.72
2022-08-17T22:14:26.551Z,3.72
2022-08-17T22:17:21.050Z,4.68
2022-08-17T22:19:54.619Z,3.92
2022-08-17T22:22:29.739Z,4.53
2022-08-17T22:24:59.697Z,4.25
2022-08-17T22:27:48.610Z,4.07
2022-08-17T22:30:27.652Z,3.45
2022-08-17T22:32:55.411Z,4.50
2022-08-17T22:35:38.736Z,3.90
2022-08-17T22:38:20.918Z,3.90
2022-08-17T22:40:57.680Z,4.63
2022-08-17T22:43:28.825Z,4.28
2022-08-17T22:45:59.849Z,3.72
2022-08-17T22:48:28.781Z,4.20
2022-08-17T22:51:13.138Z,3.88
2022-08-17T22:54:08.225Z,4.20
2022-08-17T22:56:54.240Z,3.72
2022-08-17T22:59:37.906Z,3.90
2022-08-17T23:02:14.411Z,4.50
2022-08-17T23:04:45.644Z,4.38
2022-08-17T23:07:15.928Z,4.35
2022-08-17T23:12:14.835Z,4.07
2022-08-17T23:14:45.834Z,4.22
2022-08-17T23:17:14.681Z,4.30
2022-08-17T23:19:45.952Z,3.88
2022-08-17T23:22:16.893Z,3.97
2022-08-17T23:24:52.251Z,4.00
2022-08-17T23:27:20.446Z,4.30
2022-08-17T23:29:48.683Z,4.32
2022-08-17T23:32:17.791Z,4.07
2022-08-17T23:34:47.805Z,4.10
2022-08-17T23:37:15.527Z,4.22
2022-08-17T23:39:44.997Z,4.68
2022-08-17T23:42:16.248Z,4.32
2022-08-17T23:44:43.861Z,4.72
2022-08-17T23:47:11.473Z,4.35
2022-08-17T23:49:40.305Z,4.28
2022-08-17T23:52:12.663Z,4.78
2022-08-17T23:54:46.462Z,4.63
2022-08-17T23:57:19.740Z,4.43
